Aviation Digital Data Service (ADDS)

Output produced by METARs form (1101 UTC 30 April 2017)
found at http://www.aviationweather.gov/adds/metars/
 
ELLX 301050Z 16013KT 130V190 CAVOK 16/M01 Q1009 NOSIG
TAF ELLX 300500Z 3006/0112 09011KT CAVOK 
     TEMPO 3009/3020 12015G25KT 
     TEMPO 0103/0112 4000 -RA SCT006 BKN010